THY535 LTFM-UGTB
Flight info
| Callsign | THY535 |
|---|---|
| Flight time | 1h 55m |
| Altitude | 37000 |
| Route | VICEN1R/35L VICEN UT380 ASMAP UL333 LATGA UT363 GURBU UL615 SIV UW706 TBN UN61 NOLGA N61 LAGAS |
| Aircraft | B738/M-SDE2E3FGHIRWXY/LB1 |
Departure
| Time | 2026-05-07 17:38 |
|---|---|
| Airport | İstanbul Airport (LTFM) |
Arrival
| Time | 2026-05-07 19:33 |
|---|---|
| Airport | Tbilisi International Airport (UGTB) |
| Time | Latitude | Longitude | Altitude | Speed | Heading |
|---|---|---|---|---|---|
| 2026-05-07 17:06 | 41.26396 | 28.73582 | 176 ft | 0 kts | 75° |
| 2026-05-07 17:26 | 41.26392 | 28.73565 | 176 ft | 4 kts | 75° |
| 2026-05-07 17:27 | 41.26388 | 28.73531 | 176 ft | 4 kts | 87° |
| 2026-05-07 17:27 | 41.26388 | 28.73496 | 176 ft | 2 kts | 94° |
| 2026-05-07 17:27 | 41.26389 | 28.73488 | 176 ft | 0 kts | 94° |
| 2026-05-07 17:32 | 41.26387 | 28.73492 | 176 ft | 3 kts | 112° |
| 2026-05-07 17:32 | 41.26368 | 28.73492 | 176 ft | 3 kts | 199° |
| 2026-05-07 17:32 | 41.26345 | 28.73482 | 176 ft | 4 kts | 198° |
| 2026-05-07 17:32 | 41.26326 | 28.73478 | 176 ft | 5 kts | 180° |
| 2026-05-07 17:33 | 41.26250 | 28.73494 | 176 ft | 11 kts | 188° |
| 2026-05-07 17:33 | 41.26212 | 28.73420 | 176 ft | 11 kts | 265° |
| 2026-05-07 17:33 | 41.26209 | 28.73323 | 176 ft | 10 kts | 269° |
| 2026-05-07 17:33 | 41.26208 | 28.73229 | 176 ft | 10 kts | 269° |
| 2026-05-07 17:34 | 41.26207 | 28.73130 | 176 ft | 11 kts | 269° |
| 2026-05-07 17:34 | 41.26206 | 28.73060 | 176 ft | 12 kts | 270° |
| 2026-05-07 17:34 | 41.26205 | 28.72967 | 176 ft | 6 kts | 269° |
| 2026-05-07 17:34 | 41.26205 | 28.72964 | 176 ft | 0 kts | 269° |
| 2026-05-07 17:35 | 41.26205 | 28.72962 | 176 ft | 2 kts | 269° |
| 2026-05-07 17:35 | 41.26204 | 28.72907 | 176 ft | 8 kts | 269° |
| 2026-05-07 17:35 | 41.26204 | 28.72834 | 175 ft | 8 kts | 270° |
| 2026-05-07 17:36 | 41.26203 | 28.72758 | 174 ft | 8 kts | 269° |
| 2026-05-07 17:36 | 41.26202 | 28.72675 | 174 ft | 10 kts | 269° |
| 2026-05-07 17:36 | 41.26203 | 28.72577 | 174 ft | 11 kts | 277° |
| 2026-05-07 17:36 | 41.26256 | 28.72524 | 175 ft | 9 kts | 355° |
| 2026-05-07 17:37 | 41.26313 | 28.72521 | 175 ft | 8 kts | 359° |
| 2026-05-07 17:37 | 41.26602 | 28.72514 | 178 ft | 87 kts | 359° |
| 2026-05-07 17:37 | 41.27492 | 28.72491 | 200 ft | 164 kts | 0° |
| 2026-05-07 17:37 | 41.28788 | 28.72505 | 623 ft | 202 kts | 359° |
| 2026-05-07 17:38 | 41.30165 | 28.72578 | 1401 ft | 206 kts | 0° |
| 2026-05-07 17:38 | 41.31651 | 28.72574 | 1875 ft | 216 kts | 358° |
| 2026-05-07 17:38 | 41.33078 | 28.72568 | 2290 ft | 193 kts | 356° |
| 2026-05-07 17:38 | 41.34378 | 28.72574 | 2731 ft | 187 kts | 355° |
| 2026-05-07 17:39 | 41.35661 | 28.72203 | 3205 ft | 192 kts | 327° |
| 2026-05-07 17:39 | 41.36760 | 28.71186 | 3690 ft | 194 kts | 313° |
| 2026-05-07 17:39 | 41.37588 | 28.69757 | 4178 ft | 198 kts | 298° |
| 2026-05-07 17:39 | 41.38093 | 28.68030 | 4654 ft | 203 kts | 279° |
| 2026-05-07 17:40 | 41.38145 | 28.66130 | 5154 ft | 208 kts | 270° |
| 2026-05-07 17:40 | 41.38127 | 28.64177 | 5626 ft | 214 kts | 270° |
| 2026-05-07 17:40 | 41.38106 | 28.62173 | 6115 ft | 219 kts | 269° |
| 2026-05-07 17:40 | 41.38083 | 28.60119 | 6586 ft | 227 kts | 269° |
| 2026-05-07 17:41 | 41.37984 | 28.57972 | 7017 ft | 239 kts | 256° |
| 2026-05-07 17:41 | 41.37134 | 28.56044 | 7497 ft | 251 kts | 223° |
| 2026-05-07 17:41 | 41.35532 | 28.54990 | 7851 ft | 273 kts | 189° |
| 2026-05-07 17:41 | 41.33583 | 28.54977 | 8329 ft | 285 kts | 179° |
| 2026-05-07 17:42 | 41.31581 | 28.55084 | 8995 ft | 290 kts | 179° |
| 2026-05-07 17:42 | 41.29550 | 28.55166 | 9756 ft | 293 kts | 180° |
| 2026-05-07 17:42 | 41.27497 | 28.55226 | 10334 ft | 301 kts | 180° |
| 2026-05-07 17:42 | 41.25335 | 28.55522 | 10477 ft | 326 kts | 162° |
| 2026-05-07 17:43 | 41.23342 | 28.57110 | 10655 ft | 347 kts | 138° |
| 2026-05-07 17:43 | 41.21581 | 28.59375 | 10809 ft | 367 kts | 135° |
| 2026-05-07 17:43 | 41.19741 | 28.61831 | 11101 ft | 380 kts | 135° |
| 2026-05-07 17:43 | 41.17874 | 28.64351 | 11639 ft | 385 kts | 132° |
| 2026-05-07 17:44 | 41.16302 | 28.67299 | 12275 ft | 388 kts | 117° |
| 2026-05-07 17:44 | 41.15301 | 28.70577 | 12918 ft | 390 kts | 107° |
| 2026-05-07 17:44 | 41.14464 | 28.74072 | 13580 ft | 393 kts | 107° |
| 2026-05-07 17:44 | 41.13628 | 28.77543 | 14181 ft | 397 kts | 107° |
| 2026-05-07 17:45 | 41.12783 | 28.81006 | 14733 ft | 401 kts | 107° |
| 2026-05-07 17:45 | 41.11911 | 28.84542 | 15311 ft | 406 kts | 108° |
| 2026-05-07 17:45 | 41.11022 | 28.88110 | 15885 ft | 410 kts | 108° |
| 2026-05-07 17:45 | 41.10119 | 28.91711 | 16455 ft | 414 kts | 108° |
| 2026-05-07 17:46 | 41.09200 | 28.95353 | 17010 ft | 418 kts | 108° |
| 2026-05-07 17:46 | 41.08273 | 28.99021 | 17575 ft | 422 kts | 108° |
| 2026-05-07 17:46 | 41.07335 | 29.02718 | 18121 ft | 426 kts | 108° |
| 2026-05-07 17:46 | 41.06392 | 29.06433 | 18604 ft | 430 kts | 108° |
| 2026-05-07 17:47 | 41.05430 | 29.10214 | 19072 ft | 433 kts | 107° |
| 2026-05-07 17:47 | 41.04462 | 29.14014 | 19544 ft | 437 kts | 107° |
| 2026-05-07 17:47 | 41.03486 | 29.17839 | 20010 ft | 441 kts | 107° |
| 2026-05-07 17:47 | 41.02500 | 29.21700 | 20472 ft | 444 kts | 107° |
| 2026-05-07 17:48 | 41.01505 | 29.25586 | 20920 ft | 448 kts | 107° |
| 2026-05-07 17:48 | 41.00499 | 29.29510 | 21336 ft | 452 kts | 107° |
| 2026-05-07 17:48 | 40.99484 | 29.33464 | 21755 ft | 455 kts | 107° |
| 2026-05-07 17:48 | 40.98459 | 29.37448 | 22176 ft | 459 kts | 107° |
| 2026-05-07 17:49 | 40.97426 | 29.41460 | 22590 ft | 462 kts | 107° |
| 2026-05-07 17:49 | 40.96385 | 29.45495 | 22976 ft | 465 kts | 106° |
| 2026-05-07 17:49 | 40.95332 | 29.49569 | 23362 ft | 469 kts | 106° |
| 2026-05-07 17:49 | 40.94273 | 29.53659 | 23731 ft | 472 kts | 106° |
| 2026-05-07 17:50 | 40.93218 | 29.57725 | 24042 ft | 475 kts | 106° |
| 2026-05-07 17:50 | 40.92142 | 29.61868 | 24361 ft | 478 kts | 106° |
| 2026-05-07 17:50 | 40.91060 | 29.66023 | 24697 ft | 480 kts | 106° |
| 2026-05-07 17:50 | 40.89971 | 29.70203 | 25028 ft | 482 kts | 106° |
| 2026-05-07 17:51 | 40.88874 | 29.74401 | 25343 ft | 484 kts | 106° |
| 2026-05-07 17:51 | 40.87770 | 29.78621 | 25647 ft | 487 kts | 106° |
| 2026-05-07 17:51 | 40.86659 | 29.82859 | 25963 ft | 489 kts | 106° |
| 2026-05-07 17:51 | 40.85539 | 29.87127 | 26210 ft | 493 kts | 106° |
| 2026-05-07 17:52 | 40.84411 | 29.91419 | 26475 ft | 496 kts | 106° |
| 2026-05-07 17:52 | 40.83273 | 29.95738 | 26778 ft | 498 kts | 106° |
| 2026-05-07 17:52 | 40.82132 | 30.00062 | 27060 ft | 500 kts | 106° |
| 2026-05-07 17:52 | 40.80997 | 30.04355 | 27338 ft | 502 kts | 106° |
| 2026-05-07 17:53 | 40.79845 | 30.08705 | 27607 ft | 504 kts | 106° |
| 2026-05-07 17:53 | 40.78684 | 30.13079 | 27869 ft | 506 kts | 106° |
| 2026-05-07 17:53 | 40.77517 | 30.17474 | 28112 ft | 509 kts | 106° |
| 2026-05-07 17:53 | 40.76344 | 30.21878 | 28486 ft | 508 kts | 106° |
| 2026-05-07 17:54 | 40.75172 | 30.26269 | 28911 ft | 506 kts | 106° |
| 2026-05-07 17:54 | 40.74000 | 30.30654 | 29324 ft | 505 kts | 106° |
| 2026-05-07 17:54 | 40.72830 | 30.35022 | 29677 ft | 505 kts | 106° |
| 2026-05-07 17:54 | 40.71658 | 30.39397 | 30035 ft | 506 kts | 106° |
| 2026-05-07 17:55 | 40.70484 | 30.43767 | 30329 ft | 507 kts | 106° |
| 2026-05-07 17:55 | 40.69308 | 30.48144 | 30606 ft | 507 kts | 106° |
| 2026-05-07 17:55 | 40.68125 | 30.52527 | 30960 ft | 506 kts | 106° |
| 2026-05-07 17:55 | 40.66947 | 30.56880 | 31345 ft | 504 kts | 106° |
| 2026-05-07 17:56 | 40.65772 | 30.61224 | 31690 ft | 503 kts | 106° |
| 2026-05-07 17:56 | 40.64612 | 30.65512 | 31999 ft | 502 kts | 106° |
| 2026-05-07 17:56 | 40.63437 | 30.69849 | 32255 ft | 503 kts | 106° |
| 2026-05-07 17:56 | 40.62349 | 30.74213 | 32585 ft | 500 kts | 103° |
| 2026-05-07 17:57 | 40.61393 | 30.78605 | 32979 ft | 497 kts | 102° |
| 2026-05-07 17:57 | 40.60797 | 30.81505 | 33280 ft | 494 kts | 101° |
| 2026-05-07 17:57 | 40.59619 | 30.87339 | 33659 ft | 493 kts | 101° |
| 2026-05-07 17:57 | 40.58727 | 30.91708 | 33785 ft | 496 kts | 102° |
| 2026-05-07 17:58 | 40.57818 | 30.96077 | 34146 ft | 494 kts | 102° |
| 2026-05-07 17:58 | 40.56899 | 31.00425 | 34410 ft | 494 kts | 102° |
| 2026-05-07 17:58 | 40.55969 | 31.04785 | 34596 ft | 495 kts | 102° |
| 2026-05-07 17:58 | 40.55038 | 31.09140 | 34860 ft | 495 kts | 102° |
| 2026-05-07 17:59 | 40.54108 | 31.13487 | 35105 ft | 494 kts | 102° |
| 2026-05-07 17:59 | 40.53176 | 31.17834 | 35345 ft | 493 kts | 102° |
| 2026-05-07 17:59 | 40.52246 | 31.22168 | 35562 ft | 493 kts | 102° |
| 2026-05-07 17:59 | 40.51314 | 31.26494 | 35828 ft | 492 kts | 102° |
| 2026-05-07 18:00 | 40.50383 | 31.30805 | 36071 ft | 491 kts | 102° |
| 2026-05-07 18:00 | 40.49464 | 31.35062 | 36319 ft | 490 kts | 102° |
| 2026-05-07 18:00 | 40.48523 | 31.39417 | 36596 ft | 488 kts | 102° |
| 2026-05-07 18:00 | 40.47608 | 31.43644 | 36832 ft | 487 kts | 102° |
| 2026-05-07 18:01 | 40.46679 | 31.47925 | 37014 ft | 488 kts | 103° |
| 2026-05-07 18:01 | 40.45747 | 31.52206 | 37140 ft | 487 kts | 102° |
| 2026-05-07 18:01 | 40.43879 | 31.60775 | 37147 ft | 489 kts | 102° |
| 2026-05-07 18:02 | 40.41059 | 31.73679 | 37158 ft | 491 kts | 103° |
| 2026-05-07 18:03 | 40.39168 | 31.82291 | 37167 ft | 492 kts | 103° |
| 2026-05-07 18:03 | 40.37268 | 31.90914 | 37180 ft | 491 kts | 103° |
| 2026-05-07 18:04 | 40.35344 | 31.99517 | 37161 ft | 492 kts | 103° |
| 2026-05-07 18:04 | 40.33355 | 32.08090 | 37168 ft | 491 kts | 103° |
| 2026-05-07 18:05 | 40.31520 | 32.16698 | 37162 ft | 489 kts | 101° |
| 2026-05-07 18:05 | 40.29884 | 32.25275 | 37168 ft | 487 kts | 101° |
| 2026-05-07 18:06 | 40.28231 | 32.33877 | 37166 ft | 486 kts | 101° |
| 2026-05-07 18:06 | 40.26546 | 32.42453 | 37165 ft | 486 kts | 101° |
| 2026-05-07 18:07 | 40.24850 | 32.50964 | 37161 ft | 486 kts | 101° |
| 2026-05-07 18:07 | 40.23136 | 32.59521 | 37158 ft | 486 kts | 101° |
| 2026-05-07 18:08 | 40.21419 | 32.68064 | 37166 ft | 486 kts | 101° |
| 2026-05-07 18:08 | 40.19695 | 32.76618 | 37185 ft | 486 kts | 101° |
| 2026-05-07 18:09 | 40.17964 | 32.85169 | 37179 ft | 487 kts | 101° |
| 2026-05-07 18:09 | 40.16224 | 32.93730 | 37188 ft | 487 kts | 102° |
| 2026-05-07 18:10 | 40.14778 | 33.02337 | 37179 ft | 482 kts | 91° |
| 2026-05-07 18:10 | 40.14862 | 33.11020 | 37199 ft | 476 kts | 83° |
| 2026-05-07 18:11 | 40.15184 | 33.19608 | 37187 ft | 476 kts | 83° |
| 2026-05-07 18:11 | 40.15455 | 33.28260 | 37175 ft | 476 kts | 83° |
| 2026-05-07 18:12 | 40.15688 | 33.36928 | 37152 ft | 477 kts | 84° |
| 2026-05-07 18:12 | 40.15906 | 33.45582 | 37150 ft | 477 kts | 84° |
| 2026-05-07 18:13 | 40.16121 | 33.54251 | 37144 ft | 477 kts | 84° |
| 2026-05-07 18:13 | 40.16331 | 33.62920 | 37163 ft | 477 kts | 84° |
| 2026-05-07 18:14 | 40.16536 | 33.71603 | 37149 ft | 478 kts | 84° |
| 2026-05-07 18:14 | 40.16734 | 33.80299 | 37138 ft | 478 kts | 84° |
| 2026-05-07 18:15 | 40.16133 | 33.89007 | 37145 ft | 485 kts | 98° |
| 2026-05-07 18:15 | 40.14812 | 33.97658 | 37123 ft | 484 kts | 96° |
| 2026-05-07 18:16 | 40.13829 | 34.06284 | 37135 ft | 482 kts | 94° |
| 2026-05-07 18:16 | 40.12963 | 34.14982 | 37131 ft | 482 kts | 94° |
| 2026-05-07 18:17 | 40.12059 | 34.23671 | 37137 ft | 483 kts | 94° |
| 2026-05-07 18:17 | 40.11114 | 34.32358 | 37137 ft | 483 kts | 95° |
| 2026-05-07 18:18 | 40.10151 | 34.41042 | 37147 ft | 483 kts | 95° |
| 2026-05-07 18:18 | 40.09180 | 34.49740 | 37144 ft | 483 kts | 95° |
| 2026-05-07 18:19 | 40.08207 | 34.58419 | 37151 ft | 483 kts | 95° |
| 2026-05-07 18:19 | 40.07234 | 34.67039 | 37147 ft | 483 kts | 95° |
| 2026-05-07 18:20 | 40.06248 | 34.75710 | 37157 ft | 482 kts | 95° |
| 2026-05-07 18:20 | 40.05258 | 34.84361 | 37151 ft | 481 kts | 95° |
| 2026-05-07 18:21 | 40.04263 | 34.93005 | 37151 ft | 481 kts | 95° |
| 2026-05-07 18:21 | 40.03261 | 35.01644 | 37152 ft | 481 kts | 95° |
| 2026-05-07 18:22 | 40.02253 | 35.10279 | 37143 ft | 481 kts | 95° |
| 2026-05-07 18:22 | 40.01238 | 35.18912 | 37158 ft | 481 kts | 95° |
| 2026-05-07 18:23 | 40.00226 | 35.27477 | 37154 ft | 481 kts | 96° |
| 2026-05-07 18:23 | 39.99199 | 35.36107 | 37150 ft | 482 kts | 96° |
| 2026-05-07 18:24 | 39.98134 | 35.44733 | 37157 ft | 482 kts | 96° |
| 2026-05-07 18:24 | 39.97041 | 35.53367 | 37151 ft | 482 kts | 96° |
| 2026-05-07 18:25 | 39.96133 | 35.60530 | 37157 ft | 482 kts | 96° |
| 2026-05-07 18:25 | 39.95036 | 35.69165 | 37161 ft | 482 kts | 96° |
| 2026-05-07 18:26 | 39.93935 | 35.77788 | 37162 ft | 482 kts | 96° |
| 2026-05-07 18:26 | 39.92830 | 35.86399 | 37175 ft | 482 kts | 97° |
| 2026-05-07 18:27 | 39.91716 | 35.95018 | 37177 ft | 482 kts | 97° |
| 2026-05-07 18:27 | 39.90581 | 36.03628 | 37182 ft | 482 kts | 97° |
| 2026-05-07 18:28 | 39.89438 | 36.12231 | 37190 ft | 482 kts | 97° |
| 2026-05-07 18:28 | 39.88299 | 36.20785 | 37193 ft | 482 kts | 97° |
| 2026-05-07 18:29 | 39.87137 | 36.29389 | 37189 ft | 483 kts | 98° |
| 2026-05-07 18:29 | 39.85828 | 36.37969 | 37191 ft | 483 kts | 98° |
| 2026-05-07 18:30 | 39.84646 | 36.46574 | 37187 ft | 482 kts | 97° |
| 2026-05-07 18:30 | 39.83532 | 36.55182 | 37194 ft | 482 kts | 97° |
| 2026-05-07 18:31 | 39.82386 | 36.63784 | 37223 ft | 483 kts | 97° |
| 2026-05-07 18:31 | 39.81225 | 36.72322 | 37229 ft | 483 kts | 97° |
| 2026-05-07 18:32 | 39.80052 | 36.80913 | 37238 ft | 482 kts | 97° |
| 2026-05-07 18:32 | 39.79881 | 36.89510 | 37266 ft | 473 kts | 76° |
| 2026-05-07 18:32 | 39.80768 | 36.93603 | 37230 ft | 469 kts | 65° |
| 2026-05-07 18:33 | 39.82228 | 36.97364 | 37253 ft | 464 kts | 57° |
| 2026-05-07 18:33 | 39.85479 | 37.04631 | 37222 ft | 465 kts | 56° |
| 2026-05-07 18:34 | 39.88713 | 37.11935 | 37225 ft | 466 kts | 57° |
| 2026-05-07 18:34 | 39.91907 | 37.19293 | 37213 ft | 466 kts | 58° |
| 2026-05-07 18:35 | 39.95065 | 37.26626 | 37196 ft | 467 kts | 58° |
| 2026-05-07 18:35 | 39.98242 | 37.34023 | 37190 ft | 467 kts | 58° |
| 2026-05-07 18:36 | 40.01420 | 37.41434 | 37199 ft | 468 kts | 58° |
| 2026-05-07 18:36 | 40.04599 | 37.48860 | 37182 ft | 469 kts | 58° |
| 2026-05-07 18:37 | 40.07774 | 37.56295 | 37187 ft | 468 kts | 58° |
| 2026-05-07 18:37 | 40.10952 | 37.63717 | 37190 ft | 468 kts | 58° |
| 2026-05-07 18:38 | 40.14145 | 37.71148 | 37185 ft | 468 kts | 58° |
| 2026-05-07 18:38 | 40.17305 | 37.78522 | 37183 ft | 468 kts | 58° |
| 2026-05-07 18:39 | 40.20474 | 37.85946 | 37184 ft | 467 kts | 58° |
| 2026-05-07 18:39 | 40.23642 | 37.93385 | 37194 ft | 467 kts | 58° |
| 2026-05-07 18:40 | 40.26799 | 38.00819 | 37188 ft | 467 kts | 58° |
| 2026-05-07 18:40 | 40.29949 | 38.08253 | 37185 ft | 467 kts | 58° |
| 2026-05-07 18:41 | 40.33097 | 38.15702 | 37178 ft | 466 kts | 59° |
| 2026-05-07 18:41 | 40.36131 | 38.23220 | 37181 ft | 466 kts | 60° |
| 2026-05-07 18:42 | 40.39146 | 38.30684 | 37186 ft | 466 kts | 59° |
| 2026-05-07 18:42 | 40.42330 | 38.38086 | 37189 ft | 465 kts | 58° |
| 2026-05-07 18:43 | 40.45519 | 38.45470 | 37202 ft | 465 kts | 58° |
| 2026-05-07 18:43 | 40.48683 | 38.52884 | 37189 ft | 465 kts | 58° |
| 2026-05-07 18:44 | 40.51827 | 38.60324 | 37196 ft | 466 kts | 59° |
| 2026-05-07 18:44 | 40.54894 | 38.67848 | 37198 ft | 467 kts | 60° |
| 2026-05-07 18:45 | 40.57955 | 38.75403 | 37189 ft | 468 kts | 60° |
| 2026-05-07 18:45 | 40.61019 | 38.82948 | 37195 ft | 467 kts | 60° |
| 2026-05-07 18:46 | 40.64083 | 38.90499 | 37202 ft | 467 kts | 60° |
| 2026-05-07 18:46 | 40.67134 | 38.98059 | 37195 ft | 468 kts | 60° |
| 2026-05-07 18:47 | 40.70157 | 39.05584 | 37196 ft | 468 kts | 60° |
| 2026-05-07 18:47 | 40.73195 | 39.13164 | 37199 ft | 467 kts | 60° |
| 2026-05-07 18:48 | 40.76228 | 39.20749 | 37210 ft | 467 kts | 60° |
| 2026-05-07 18:48 | 40.79257 | 39.28342 | 37203 ft | 467 kts | 60° |
| 2026-05-07 18:49 | 40.82282 | 39.35946 | 37205 ft | 468 kts | 60° |
| 2026-05-07 18:49 | 40.85228 | 39.43368 | 37208 ft | 469 kts | 61° |
| 2026-05-07 18:50 | 40.88227 | 39.50944 | 37208 ft | 469 kts | 61° |
| 2026-05-07 18:50 | 40.91235 | 39.58562 | 37210 ft | 470 kts | 61° |
| 2026-05-07 18:51 | 40.94255 | 39.66231 | 37210 ft | 470 kts | 61° |
| 2026-05-07 18:51 | 40.97275 | 39.73918 | 37213 ft | 470 kts | 61° |
| 2026-05-07 18:52 | 40.99920 | 39.81837 | 37198 ft | 472 kts | 74° |
| 2026-05-07 18:52 | 41.01246 | 39.90347 | 37213 ft | 472 kts | 78° |
| 2026-05-07 18:53 | 41.02446 | 39.98892 | 37209 ft | 472 kts | 78° |
| 2026-05-07 18:53 | 41.03671 | 40.07377 | 37208 ft | 472 kts | 78° |
| 2026-05-07 18:54 | 41.04928 | 40.15904 | 37196 ft | 472 kts | 78° |
| 2026-05-07 18:54 | 41.06189 | 40.24433 | 37200 ft | 472 kts | 78° |
| 2026-05-07 18:55 | 41.07445 | 40.32967 | 37198 ft | 472 kts | 78° |
| 2026-05-07 18:55 | 41.08692 | 40.41507 | 37200 ft | 472 kts | 78° |
| 2026-05-07 18:56 | 41.09934 | 40.50055 | 37202 ft | 472 kts | 78° |
| 2026-05-07 18:56 | 41.11168 | 40.58600 | 37206 ft | 472 kts | 78° |
| 2026-05-07 18:57 | 41.12390 | 40.67108 | 37209 ft | 472 kts | 78° |
| 2026-05-07 18:57 | 41.13613 | 40.75669 | 37210 ft | 473 kts | 79° |
| 2026-05-07 18:58 | 41.14833 | 40.84255 | 37218 ft | 474 kts | 79° |
| 2026-05-07 18:58 | 41.16047 | 40.92846 | 37214 ft | 474 kts | 79° |
| 2026-05-07 18:59 | 41.17257 | 41.01458 | 37215 ft | 475 kts | 79° |
| 2026-05-07 18:59 | 41.18461 | 41.10081 | 37209 ft | 475 kts | 79° |
| 2026-05-07 19:00 | 41.19256 | 41.15802 | 37212 ft | 475 kts | 79° |
| 2026-05-07 19:01 | 41.19591 | 41.18217 | 37211 ft | 475 kts | 79° |
| 2026-05-07 19:02 | 41.20784 | 41.26857 | 37209 ft | 476 kts | 79° |
| 2026-05-07 19:02 | 41.21971 | 41.35499 | 37200 ft | 476 kts | 79° |
| 2026-05-07 19:03 | 41.23153 | 41.44153 | 37212 ft | 476 kts | 80° |
| 2026-05-07 19:03 | 41.24327 | 41.52807 | 37200 ft | 476 kts | 80° |
| 2026-05-07 19:04 | 41.25496 | 41.61465 | 37220 ft | 476 kts | 80° |
| 2026-05-07 19:04 | 41.26660 | 41.70141 | 37225 ft | 477 kts | 80° |
| 2026-05-07 19:05 | 41.27817 | 41.78823 | 37225 ft | 477 kts | 80° |
| 2026-05-07 19:05 | 41.28968 | 41.87503 | 37218 ft | 477 kts | 80° |
| 2026-05-07 19:06 | 41.30115 | 41.96205 | 37232 ft | 478 kts | 81° |
| 2026-05-07 19:06 | 41.31794 | 42.09220 | 37237 ft | 478 kts | 81° |
| 2026-05-07 19:07 | 41.32908 | 42.17955 | 37220 ft | 479 kts | 81° |
| 2026-05-07 19:07 | 41.34015 | 42.26682 | 37243 ft | 478 kts | 81° |
| 2026-05-07 19:08 | 41.35116 | 42.35409 | 37233 ft | 479 kts | 81° |
| 2026-05-07 19:08 | 41.36214 | 42.44163 | 37238 ft | 479 kts | 81° |
| 2026-05-07 19:09 | 41.37305 | 42.52912 | 37230 ft | 479 kts | 81° |
| 2026-05-07 19:09 | 41.38389 | 42.61670 | 37233 ft | 479 kts | 81° |
| 2026-05-07 19:10 | 41.39467 | 42.70438 | 37230 ft | 480 kts | 81° |
| 2026-05-07 19:10 | 41.40540 | 42.79213 | 37226 ft | 480 kts | 82° |
| 2026-05-07 19:11 | 41.41609 | 42.88021 | 36790 ft | 487 kts | 82° |
| 2026-05-07 19:11 | 41.42141 | 42.92420 | 36267 ft | 485 kts | 82° |
| 2026-05-07 19:11 | 41.42675 | 42.96849 | 35634 ft | 484 kts | 82° |
| 2026-05-07 19:12 | 41.43208 | 43.01284 | 34928 ft | 484 kts | 82° |
| 2026-05-07 19:12 | 41.43740 | 43.05714 | 34207 ft | 485 kts | 82° |
| 2026-05-07 19:12 | 41.44272 | 43.10158 | 33366 ft | 486 kts | 82° |
| 2026-05-07 19:12 | 41.44803 | 43.14605 | 32588 ft | 485 kts | 82° |
| 2026-05-07 19:13 | 41.45330 | 43.19035 | 31815 ft | 483 kts | 81° |
| 2026-05-07 19:13 | 41.45677 | 43.21962 | 31303 ft | 482 kts | 81° |
| 2026-05-07 19:13 | 41.46198 | 43.26363 | 30522 ft | 480 kts | 81° |
| 2026-05-07 19:13 | 41.46891 | 43.32237 | 29320 ft | 478 kts | 81° |
| 2026-05-07 19:14 | 41.47231 | 43.35128 | 28661 ft | 477 kts | 81° |
| 2026-05-07 19:14 | 41.47742 | 43.39497 | 27770 ft | 475 kts | 81° |
| 2026-05-07 19:14 | 41.48249 | 43.43839 | 26912 ft | 473 kts | 81° |
| 2026-05-07 19:14 | 41.48748 | 43.48130 | 26278 ft | 465 kts | 81° |
| 2026-05-07 19:15 | 41.49241 | 43.52377 | 25612 ft | 460 kts | 81° |
| 2026-05-07 19:15 | 41.49725 | 43.56570 | 24962 ft | 454 kts | 81° |
| 2026-05-07 19:15 | 41.50201 | 43.60704 | 24338 ft | 448 kts | 81° |
| 2026-05-07 19:15 | 41.50670 | 43.64789 | 23688 ft | 443 kts | 81° |
| 2026-05-07 19:16 | 41.51133 | 43.68832 | 22970 ft | 438 kts | 81° |
| 2026-05-07 19:16 | 41.51588 | 43.72820 | 22337 ft | 432 kts | 81° |
| 2026-05-07 19:16 | 41.52036 | 43.76757 | 21709 ft | 426 kts | 82° |
| 2026-05-07 19:16 | 41.52476 | 43.80638 | 21080 ft | 421 kts | 81° |
| 2026-05-07 19:17 | 41.52910 | 43.84482 | 20462 ft | 417 kts | 82° |
| 2026-05-07 19:17 | 41.53339 | 43.88288 | 19854 ft | 413 kts | 82° |
| 2026-05-07 19:17 | 41.53758 | 43.92020 | 19252 ft | 409 kts | 82° |
| 2026-05-07 19:17 | 41.54178 | 43.95764 | 18664 ft | 406 kts | 82° |
| 2026-05-07 19:18 | 41.54592 | 43.99479 | 18011 ft | 403 kts | 82° |
| 2026-05-07 19:18 | 41.55002 | 44.03160 | 17374 ft | 399 kts | 82° |
| 2026-05-07 19:18 | 41.55406 | 44.06804 | 16781 ft | 395 kts | 82° |
| 2026-05-07 19:18 | 41.55806 | 44.10415 | 16182 ft | 392 kts | 82° |
| 2026-05-07 19:19 | 41.56202 | 44.14003 | 15605 ft | 388 kts | 82° |
| 2026-05-07 19:19 | 41.56593 | 44.17552 | 15022 ft | 385 kts | 82° |
| 2026-05-07 19:19 | 41.56980 | 44.21077 | 14450 ft | 383 kts | 82° |
| 2026-05-07 19:19 | 41.57108 | 44.24603 | 13902 ft | 378 kts | 99° |
| 2026-05-07 19:20 | 41.56617 | 44.28011 | 13426 ft | 372 kts | 102° |
| 2026-05-07 19:20 | 41.56131 | 44.31415 | 12874 ft | 373 kts | 101° |
| 2026-05-07 19:20 | 41.55669 | 44.34822 | 12287 ft | 373 kts | 101° |
| 2026-05-07 19:20 | 41.55217 | 44.38252 | 11620 ft | 378 kts | 100° |
| 2026-05-07 19:21 | 41.54764 | 44.41712 | 11164 ft | 373 kts | 100° |
| 2026-05-07 19:21 | 41.54325 | 44.45049 | 11002 ft | 358 kts | 100° |
| 2026-05-07 19:21 | 41.53902 | 44.48269 | 10824 ft | 345 kts | 100° |
| 2026-05-07 19:21 | 41.53496 | 44.51368 | 10678 ft | 333 kts | 100° |
| 2026-05-07 19:22 | 41.53108 | 44.54316 | 10541 ft | 322 kts | 100° |
| 2026-05-07 19:22 | 41.52727 | 44.57209 | 10406 ft | 312 kts | 100° |
| 2026-05-07 19:22 | 41.52358 | 44.60014 | 10277 ft | 302 kts | 100° |
| 2026-05-07 19:22 | 41.51998 | 44.62733 | 10152 ft | 293 kts | 100° |
| 2026-05-07 19:23 | 41.51649 | 44.65370 | 10016 ft | 284 kts | 100° |
| 2026-05-07 19:23 | 41.51306 | 44.67945 | 9746 ft | 281 kts | 100° |
| 2026-05-07 19:23 | 41.50965 | 44.70501 | 9484 ft | 278 kts | 100° |
| 2026-05-07 19:23 | 41.50625 | 44.73035 | 9191 ft | 276 kts | 100° |
| 2026-05-07 19:24 | 41.50287 | 44.75541 | 8917 ft | 274 kts | 100° |
| 2026-05-07 19:24 | 41.49951 | 44.78039 | 8629 ft | 272 kts | 100° |
| 2026-05-07 19:24 | 41.49616 | 44.80516 | 8359 ft | 271 kts | 100° |
| 2026-05-07 19:24 | 41.49284 | 44.82979 | 8078 ft | 269 kts | 100° |
| 2026-05-07 19:25 | 41.48951 | 44.85437 | 7793 ft | 268 kts | 99° |
| 2026-05-07 19:25 | 41.48620 | 44.87877 | 7521 ft | 267 kts | 100° |
| 2026-05-07 19:25 | 41.48290 | 44.90312 | 7244 ft | 266 kts | 99° |
| 2026-05-07 19:25 | 41.47961 | 44.92734 | 6987 ft | 264 kts | 100° |
| 2026-05-07 19:26 | 41.47635 | 44.95133 | 6721 ft | 263 kts | 99° |
| 2026-05-07 19:26 | 41.47309 | 44.97522 | 6548 ft | 259 kts | 99° |
| 2026-05-07 19:26 | 41.46991 | 44.99848 | 6415 ft | 252 kts | 99° |
| 2026-05-07 19:26 | 41.46681 | 45.02113 | 6286 ft | 245 kts | 99° |
| 2026-05-07 19:27 | 41.46396 | 45.04291 | 6180 ft | 238 kts | 94° |
| 2026-05-07 19:27 | 41.46656 | 45.06395 | 6005 ft | 230 kts | 59° |
| 2026-05-07 19:27 | 41.47577 | 45.08089 | 5844 ft | 222 kts | 46° |
| 2026-05-07 19:27 | 41.48626 | 45.09566 | 5616 ft | 216 kts | 44° |
| 2026-05-07 19:28 | 41.49659 | 45.10990 | 5373 ft | 211 kts | 44° |
| 2026-05-07 19:28 | 41.50674 | 45.12359 | 5141 ft | 204 kts | 37° |
| 2026-05-07 19:28 | 41.51928 | 45.13027 | 4930 ft | 191 kts | 355° |
| 2026-05-07 19:28 | 41.53078 | 45.12361 | 4754 ft | 179 kts | 317° |
| 2026-05-07 19:29 | 41.53974 | 45.11257 | 4699 ft | 174 kts | 317° |
| 2026-05-07 19:29 | 41.54882 | 45.10144 | 4489 ft | 177 kts | 317° |
| 2026-05-07 19:29 | 41.55769 | 45.09040 | 4297 ft | 170 kts | 317° |
| 2026-05-07 19:29 | 41.56616 | 45.07981 | 4040 ft | 164 kts | 316° |
| 2026-05-07 19:30 | 41.57426 | 45.06967 | 3835 ft | 154 kts | 317° |
| 2026-05-07 19:30 | 41.58212 | 45.05983 | 3658 ft | 151 kts | 317° |
| 2026-05-07 19:30 | 41.58964 | 45.05042 | 3424 ft | 144 kts | 317° |
| 2026-05-07 19:30 | 41.59691 | 45.04132 | 3217 ft | 144 kts | 317° |
| 2026-05-07 19:31 | 41.60421 | 45.03221 | 3012 ft | 146 kts | 317° |
| 2026-05-07 19:31 | 41.61157 | 45.02300 | 2808 ft | 143 kts | 317° |
| 2026-05-07 19:31 | 41.61877 | 45.01401 | 2614 ft | 141 kts | 317° |
| 2026-05-07 19:31 | 41.62594 | 45.00505 | 2421 ft | 141 kts | 317° |
| 2026-05-07 19:32 | 41.63305 | 44.99616 | 2235 ft | 138 kts | 317° |
| 2026-05-07 19:32 | 41.64001 | 44.98746 | 2056 ft | 135 kts | 317° |
| 2026-05-07 19:32 | 41.64684 | 44.97893 | 1876 ft | 133 kts | 317° |
| 2026-05-07 19:32 | 41.65366 | 44.97050 | 1691 ft | 133 kts | 317° |
| 2026-05-07 19:33 | 41.66033 | 44.96230 | 1536 ft | 126 kts | 317° |
| 2026-05-07 19:33 | 41.66606 | 44.95508 | 1521 ft | 95 kts | 317° |
| 2026-05-07 19:33 | 41.66873 | 44.95209 | 1521 ft | 20 kts | 348° |
| 2026-05-07 19:33 | 41.66982 | 44.95300 | 1525 ft | 19 kts | 28° |
| 2026-05-07 19:34 | 41.67083 | 44.95413 | 1521 ft | 19 kts | 47° |
| 2026-05-07 19:34 | 41.67167 | 44.95540 | 1522 ft | 18 kts | 44° |
| 2026-05-07 19:34 | 41.67238 | 44.95650 | 1524 ft | 11 kts | 82° |
| 2026-05-07 19:34 | 41.67191 | 44.95727 | 1525 ft | 11 kts | 133° |
| 2026-05-07 19:35 | 41.67140 | 44.95800 | 1525 ft | 11 kts | 133° |
| 2026-05-07 19:35 | 41.67090 | 44.95870 | 1524 ft | 10 kts | 133° |
| 2026-05-07 19:35 | 41.67052 | 44.95951 | 1520 ft | 10 kts | 120° |
| 2026-05-07 19:35 | 41.67006 | 44.96019 | 1525 ft | 10 kts | 134° |
| 2026-05-07 19:36 | 41.66959 | 44.96085 | 1524 ft | 10 kts | 134° |
| 2026-05-07 19:36 | 41.66914 | 44.96149 | 1521 ft | 9 kts | 132° |
| 2026-05-07 19:36 | 41.66873 | 44.96215 | 1521 ft | 9 kts | 132° |
| 2026-05-07 19:36 | 41.66849 | 44.96250 | 1522 ft | 0 kts | 130° |
| 2026-05-07 19:37 | 41.66838 | 44.96269 | 1522 ft | 9 kts | 130° |
| 2026-05-07 19:37 | 41.66813 | 44.96308 | 1524 ft | 0 kts | 114° |
| 2026-05-07 19:37 | 41.66822 | 44.96337 | 1526 ft | 8 kts | 57° |
| 2026-05-07 19:37 | 41.66857 | 44.96387 | 1524 ft | 2 kts | 43° |
| 2026-05-07 19:38 | 41.66858 | 44.96388 | 1524 ft | 0 kts | 43° |